Time;durP1;ratioP1;P1;durP2;ratioP2;P2;SDS_P1;SDS_P2;PMS_P1;PMS_P2;Temp;Humidity;BMP_temperature;BMP_pressure;BME280_temperature;BME280_humidity;BME280_pressure;Samples;Min_cycle;Max_cycle;Signal;HPM_P1;HPM_P2
2021/12/21 00:02:25;;;;;;;;;;;-1.60;99.90;;;;;;4983466;28;19925;-83
2021/12/21 00:04:50;;;;;;;;;;;-1.60;99.90;;;;;;4984014;28;20024;-82
2021/12/21 00:07:16;;;;;;;;;;;-1.60;99.90;;;;;;4983556;28;19973;-83
2021/12/21 00:09:42;;;;;;;;;;;-1.50;99.90;;;;;;4983953;28;19933;-82
2021/12/21 00:12:08;;;;;;;;;;;-1.60;99.90;;;;;;4984030;28;19925;-82
2021/12/21 00:14:55;;;;;;;;;;;-1.60;99.90;;;;;;4999636;28;19925;-83
2021/12/21 00:17:43;;;;;;;;;;;-1.50;99.90;;;;;;5001599;28;19971;-82
2021/12/21 00:23:28;;;;;;;;;;;-1.60;99.90;;;;;;4999478;28;19929;-82
2021/12/21 00:25:22;;;;;;;;;;;-1.60;99.90;;;;;;5012312;28;19925;-83
2021/12/21 00:27:50;;;;;;;;;;;-1.50;99.90;;;;;;4999837;28;19932;-83
2021/12/21 00:30:15;;;;;;;;;;;-1.50;99.90;;;;;;4998944;28;19932;-83
2021/12/21 00:32:41;;;;;;;;;;;-1.50;99.90;;;;;;4983569;28;20016;-82
2021/12/21 00:35:09;;;;;;;;;;;-1.40;99.90;;;;;;5015913;28;20370;-82
2021/12/21 00:37:36;;;;;;;;;;;-1.40;99.90;;;;;;4999420;28;20028;-82
2021/12/21 00:40:02;;;;;;;;;;;-1.40;99.90;;;;;;4983586;28;19925;-83
2021/12/21 00:42:30;;;;;;;;;;;-1.40;99.90;;;;;;4983049;28;19979;-82
2021/12/21 00:44:56;;;;;;;;;;;-1.40;99.90;;;;;;4999770;28;19932;-82
2021/12/21 00:47:21;;;;;;;;;;;-1.50;99.90;;;;;;4982944;28;19925;-83
2021/12/21 00:49:57;;;;;;;;;;;-1.60;99.90;;;;;;4999523;28;19925;-82
2021/12/21 00:52:23;;;;;;;;;;;-1.60;99.90;;;;;;5000494;28;19925;-83
2021/12/21 00:54:48;;;;;;;;;;;-1.70;99.90;;;;;;4981849;28;19932;-82
2021/12/21 00:57:14;;;;;;;;;;;-1.70;99.90;;;;;;4983012;28;19925;-82
2021/12/21 00:59:39;;;;;;;;;;;-1.80;99.90;;;;;;5031786;28;20023;-82
2021/12/21 01:02:05;;;;;;;;;;;-1.80;99.90;;;;;;4983078;28;20003;-82
2021/12/21 01:04:36;;;;;;;;;;;-1.80;99.90;;;;;;4998535;28;19925;-82
2021/12/21 01:07:17;;;;;;;;;;;-1.80;99.90;;;;;;4984049;28;19929;-82
2021/12/21 01:12:13;;;;;;;;;;;-1.70;99.90;;;;;;4999118;28;20015;-82
2021/12/21 01:17:27;;;;;;;;;;;-1.70;99.90;;;;;;5000926;28;20396;-82
2021/12/21 01:20:00;;;;;;;;;;;-1.70;99.90;;;;;;4983923;28;19931;-82
2021/12/21 01:23:06;;;;;;;;;;;-1.70;99.90;;;;;;4999991;28;19932;-83
2021/12/21 01:33:55;;;;;;;;;;;-1.80;99.90;;;;;;5015123;28;20023;-82
2021/12/21 01:36:33;;;;;;;;;;;-1.80;99.90;;;;;;5002425;28;19925;-82
2021/12/21 01:39:12;;;;;;;;;;;-1.90;99.90;;;;;;5015702;28;19929;-82
2021/12/21 01:49:52;;;;;;;;;;;-2.00;99.90;;;;;;5001037;28;19951;-82
2021/12/21 01:52:21;;;;;;;;;;;-2.00;99.90;;;;;;5014413;28;19929;-82
2021/12/21 01:54:46;;;;;;;;;;;-2.00;99.90;;;;;;5013976;28;19925;-82
2021/12/21 01:57:12;;;;;;;;;;;-2.00;99.90;;;;;;4982584;28;19926;-82
2021/12/21 01:59:37;;;;;;;;;;;-2.00;99.90;;;;;;4982001;28;19932;-82
2021/12/21 02:02:03;;;;;;;;;;;-2.00;99.90;;;;;;5015016;28;19976;-82
2021/12/21 02:04:29;;;;;;;;;;;-2.10;99.90;;;;;;5014811;28;19931;-82
2021/12/21 02:06:54;;;;;;;;;;;-2.00;99.90;;;;;;5000058;28;19925;-82
2021/12/21 02:09:23;;;;;;;;;;;-2.00;99.90;;;;;;5018749;28;19988;-82
2021/12/21 02:11:48;;;;;;;;;;;-2.00;99.90;;;;;;5001910;28;20020;-82
2021/12/21 02:14:15;;;;;;;;;;;-1.90;99.90;;;;;;4985982;28;19983;-82
2021/12/21 02:17:24;;;;;;;;;;;-2.00;99.90;;;;;;5001502;28;19925;-82
2021/12/21 02:19:35;;;;;;;;;;;-2.00;99.90;;;;;;5004452;28;19933;-82
2021/12/21 02:22:15;;;;;;;;;;;-2.00;99.90;;;;;;5018504;28;19936;-82
2021/12/21 02:27:56;;;;;;;;;;;-2.00;99.90;;;;;;4958138;28;19929;-82
2021/12/21 02:30:22;;;;;;;;;;;-1.90;99.90;;;;;;4958808;28;19926;-82
2021/12/21 02:32:47;;;;;;;;;;;-2.00;99.90;;;;;;4990525;28;19932;-82
2021/12/21 02:35:13;;;;;;;;;;;-2.00;99.90;;;;;;5001913;28;19940;-82
2021/12/21 02:37:39;;;;;;;;;;;-2.00;99.90;;;;;;5001337;28;19929;-82
2021/12/21 02:40:07;;;;;;;;;;;-2.00;99.90;;;;;;5018105;28;19948;-82
2021/12/21 02:42:33;;;;;;;;;;;-2.00;99.90;;;;;;5018181;28;19994;-82
2021/12/21 02:44:58;;;;;;;;;;;-2.10;99.90;;;;;;5001854;28;20024;-82
2021/12/21 02:47:24;;;;;;;;;;;-2.10;99.90;;;;;;4985442;28;20044;-82
2021/12/21 02:49:49;;;;;;;;;;;-2.10;99.90;;;;;;5017567;28;19929;-82
2021/12/21 02:52:15;;;;;;;;;;;-2.00;99.90;;;;;;5001267;28;20296;-82
2021/12/21 02:54:41;;;;;;;;;;;-2.10;99.90;;;;;;5033356;28;19925;-82
2021/12/21 02:57:06;;;;;;;;;;;-2.10;99.90;;;;;;5034306;28;19925;-82
2021/12/21 02:59:32;;;;;;;;;;;-2.10;99.90;;;;;;4985327;28;20020;-82
2021/12/21 03:01:57;;;;;;;;;;;-2.10;99.90;;;;;;4984522;28;19925;-82
2021/12/21 03:04:23;;;;;;;;;;;-2.10;99.90;;;;;;4984752;28;19943;-82
2021/12/21 03:11:56;;;;;;;;;;;-2.10;99.90;;;;;;5017176;28;19929;-82
2021/12/21 03:14:25;;;;;;;;;;;-2.10;99.90;;;;;;5002207;28;20289;-82
2021/12/21 03:16:51;;;;;;;;;;;-2.20;99.90;;;;;;5033216;28;20262;-82
2021/12/21 03:19:16;;;;;;;;;;;-2.20;99.90;;;;;;4984070;28;19931;-81
2021/12/21 03:21:42;;;;;;;;;;;-2.20;99.90;;;;;;5000103;28;19972;-82
2021/12/21 03:24:07;;;;;;;;;;;-2.10;99.90;;;;;;4984931;28;20254;-82
2021/12/21 03:26:33;;;;;;;;;;;-2.20;99.90;;;;;;5000673;28;19925;-82
2021/12/21 03:28:58;;;;;;;;;;;-2.20;99.90;;;;;;4984381;28;19925;-81
2021/12/21 03:31:24;;;;;;;;;;;-2.20;99.90;;;;;;5000895;28;19976;-82
2021/12/21 03:33:50;;;;;;;;;;;-2.20;99.90;;;;;;5033302;28;19936;-82
2021/12/21 03:36:18;;;;;;;;;;;-2.20;99.90;;;;;;5000534;28;20331;-82
2021/12/21 03:38:50;;;;;;;;;;;-2.20;99.90;;;;;;5000790;28;20030;-82
2021/12/21 03:41:17;;;;;;;;;;;-2.20;99.90;;;;;;5017152;28;19925;-82
2021/12/21 03:43:46;;;;;;;;;;;-2.20;99.90;;;;;;4984225;28;19925;-82
2021/12/21 03:46:13;;;;;;;;;;;-2.20;99.90;;;;;;5016850;28;19939;-82
2021/12/21 03:48:43;;;;;;;;;;;-2.30;99.90;;;;;;5033312;28;19929;-82
2021/12/21 03:51:08;;;;;;;;;;;-2.20;99.90;;;;;;5000924;28;19932;-81
2021/12/21 03:53:34;;;;;;;;;;;-2.30;99.90;;;;;;5000227;28;19925;-81
2021/12/21 03:58:44;;;;;;;;;;;-2.30;99.90;;;;;;5002386;28;19995;-82
2021/12/21 04:01:09;;;;;;;;;;;-2.20;99.90;;;;;;5016685;28;19972;-81
2021/12/21 04:03:35;;;;;;;;;;;-2.20;99.90;;;;;;5016384;28;20336;-81
2021/12/21 04:06:00;;;;;;;;;;;-2.20;99.90;;;;;;4999916;28;19926;-81
2021/12/21 04:08:26;;;;;;;;;;;-2.20;99.90;;;;;;5016483;28;19975;-81
2021/12/21 04:10:51;;;;;;;;;;;-2.20;99.90;;;;;;4983537;28;19925;-82
2021/12/21 04:13:17;;;;;;;;;;;-2.20;99.90;;;;;;4983903;28;19925;-82
2021/12/21 04:15:43;;;;;;;;;;;-2.20;99.90;;;;;;4999822;28;19925;-81
2021/12/21 04:18:12;;;;;;;;;;;-2.20;99.90;;;;;;4983626;28;19963;-82
2021/12/21 04:20:38;;;;;;;;;;;-2.20;99.90;;;;;;4983533;28;19979;-81
2021/12/21 04:23:03;;;;;;;;;;;-2.20;99.90;;;;;;4999257;28;19929;-81
2021/12/21 04:25:29;;;;;;;;;;;-2.30;99.90;;;;;;5032762;28;19929;-82
2021/12/21 04:27:55;;;;;;;;;;;-2.30;99.90;;;;;;4983224;28;20435;-82
2021/12/21 04:30:20;;;;;;;;;;;-2.30;99.90;;;;;;4999696;28;20255;-82
2021/12/21 04:32:46;;;;;;;;;;;-2.40;99.90;;;;;;5032573;28;19925;-81
2021/12/21 04:35:12;;;;;;;;;;;-2.40;99.90;;;;;;5015955;28;19932;-81
2021/12/21 04:37:44;;;;;;;;;;;-2.40;99.90;;;;;;4999805;28;20369;-81
2021/12/21 04:40:15;;;;;;;;;;;-2.40;99.90;;;;;;5015620;28;19929;-81
2021/12/21 04:42:41;;;;;;;;;;;-2.40;99.90;;;;;;5016540;28;20400;-81
2021/12/21 04:45:07;;;;;;;;;;;-2.30;99.90;;;;;;4999111;28;19952;-82
2021/12/21 04:47:32;;;;;;;;;;;-2.40;99.90;;;;;;4999020;28;19932;-81
2021/12/21 04:49:58;;;;;;;;;;;-2.30;99.90;;;;;;4999082;28;19925;-82
2021/12/21 04:52:23;;;;;;;;;;;-2.30;99.90;;;;;;4999394;28;19935;-81
2021/12/21 04:54:49;;;;;;;;;;;-2.30;99.90;;;;;;5015116;28;19929;-81
2021/12/21 04:57:15;;;;;;;;;;;-2.30;99.90;;;;;;5015850;28;19925;-81
2021/12/21 04:59:40;;;;;;;;;;;-2.40;99.90;;;;;;5015769;28;19925;-81
2021/12/21 05:02:06;;;;;;;;;;;-2.40;99.90;;;;;;4998921;28;19932;-82
2021/12/21 05:04:31;;;;;;;;;;;-2.40;99.90;;;;;;4999075;28;19932;-81
2021/12/21 05:06:57;;;;;;;;;;;-2.40;99.90;;;;;;4982739;28;20056;-82
2021/12/21 05:09:29;;;;;;;;;;;-2.40;99.90;;;;;;5015705;28;20018;-81
2021/12/21 05:12:02;;;;;;;;;;;-2.40;99.90;;;;;;4999774;28;19932;-82
2021/12/21 05:14:28;;;;;;;;;;;-2.30;99.90;;;;;;4984154;28;19929;-81
2021/12/21 05:16:53;;;;;;;;;;;-2.30;99.90;;;;;;4998164;28;20427;-82
2021/12/21 05:19:19;;;;;;;;;;;-2.30;99.90;;;;;;4999226;28;20011;-82
2021/12/21 05:21:45;;;;;;;;;;;-2.30;99.90;;;;;;4982713;28;19925;-81
2021/12/21 05:24:10;;;;;;;;;;;-2.40;99.90;;;;;;4998774;28;19932;-82
2021/12/21 05:26:37;;;;;;;;;;;-2.40;99.90;;;;;;4999168;28;19925;-81
2021/12/21 05:29:05;;;;;;;;;;;-2.40;99.90;;;;;;4998635;28;19925;-82
2021/12/21 05:31:31;;;;;;;;;;;-2.50;99.90;;;;;;5015195;28;20278;-81
2021/12/21 05:33:56;;;;;;;;;;;-2.50;99.90;;;;;;4998416;28;19939;-82
2021/12/21 05:36:25;;;;;;;;;;;-2.50;99.90;;;;;;4999016;28;19932;-81
2021/12/21 05:38:54;;;;;;;;;;;-2.60;99.90;;;;;;4982785;28;19925;-81
2021/12/21 05:41:27;;;;;;;;;;;-2.50;99.90;;;;;;4983663;28;19925;-82
2021/12/21 05:43:53;;;;;;;;;;;-2.50;99.90;;;;;;4987788;28;19925;-82
2021/12/21 05:46:19;;;;;;;;;;;-2.50;99.90;;;;;;5002509;28;19936;-81
2021/12/21 05:48:44;;;;;;;;;;;-2.50;99.90;;;;;;5002785;28;19925;-82
2021/12/21 05:51:10;;;;;;;;;;;-2.60;99.90;;;;;;4985595;28;19970;-82
2021/12/21 05:53:35;;;;;;;;;;;-2.60;99.90;;;;;;5002190;28;20032;-83
2021/12/21 05:56:01;;;;;;;;;;;-2.70;99.90;;;;;;5001991;28;19975;-83
2021/12/21 05:58:26;;;;;;;;;;;-2.60;99.90;;;;;;5002568;28;20389;-82
2021/12/21 06:00:52;;;;;;;;;;;-2.60;99.90;;;;;;4986045;28;19934;-82
2021/12/21 06:03:17;;;;;;;;;;;-2.60;99.90;;;;;;5002992;28;19926;-82
2021/12/21 06:05:43;;;;;;;;;;;-2.60;99.90;;;;;;5018723;28;19961;-82
2021/12/21 06:08:09;;;;;;;;;;;-2.60;99.90;;;;;;5001960;28;20400;-82
2021/12/21 06:10:39;;;;;;;;;;;-2.70;99.90;;;;;;5002233;28;20020;-82
2021/12/21 06:15:44;;;;;;;;;;;-2.70;99.90;;;;;;5002014;28;20277;-82
2021/12/21 06:26:22;;;;;;;;;;;-2.80;99.90;;;;;;5004183;28;20071;-82
2021/12/21 06:28:48;;;;;;;;;;;-2.70;99.90;;;;;;4985861;28;19972;-82
2021/12/21 06:31:14;;;;;;;;;;;-2.70;99.90;;;;;;4985420;28;20377;-83
2021/12/21 06:33:40;;;;;;;;;;;-2.70;99.90;;;;;;5002112;28;19971;-82
2021/12/21 06:36:07;;;;;;;;;;;-2.60;99.90;;;;;;5001216;28;19964;-83
2021/12/21 06:38:32;;;;;;;;;;;-2.60;99.90;;;;;;5002146;28;20305;-82
2021/12/21 06:40:58;;;;;;;;;;;-2.60;99.90;;;;;;5001758;28;19967;-82
2021/12/21 06:43:23;;;;;;;;;;;-2.60;99.90;;;;;;5001385;28;20024;-82
2021/12/21 06:45:56;;;;;;;;;;;-2.60;99.90;;;;;;4985338;28;19929;-83
2021/12/21 06:53:32;;;;;;;;;;;-2.70;99.90;;;;;;4996753;28;20019;-82
2021/12/21 06:55:58;;;;;;;;;;;-2.70;99.90;;;;;;4981885;28;19932;-82
2021/12/21 06:58:23;;;;;;;;;;;-2.70;99.90;;;;;;4981465;28;19948;-82
2021/12/21 07:00:49;;;;;;;;;;;-2.70;99.90;;;;;;5030951;28;19933;-82
2021/12/21 07:03:15;;;;;;;;;;;-2.70;99.90;;;;;;4997781;28;19925;-83
2021/12/21 07:05:40;;;;;;;;;;;-2.70;99.90;;;;;;4998243;28;19933;-83
2021/12/21 07:08:11;;;;;;;;;;;-2.70;99.90;;;;;;4997939;28;19948;-82
2021/12/21 07:10:38;;;;;;;;;;;-2.70;99.90;;;;;;4997645;28;19993;-82
2021/12/21 07:18:32;;;;;;;;;;;-2.70;99.90;;;;;;5016406;28;19976;-82
2021/12/21 07:20:58;;;;;;;;;;;-2.80;99.90;;;;;;4981623;28;19925;-82
2021/12/21 07:23:24;;;;;;;;;;;-2.80;99.90;;;;;;4997432;28;19926;-83
2021/12/21 07:25:50;;;;;;;;;;;-2.80;99.90;;;;;;5014148;28;20429;-82
2021/12/21 07:28:16;;;;;;;;;;;-2.80;99.90;;;;;;4997220;28;19975;-82
2021/12/21 07:30:41;;;;;;;;;;;-2.80;99.90;;;;;;4997662;28;19957;-82
2021/12/21 07:33:07;;;;;;;;;;;-2.80;99.90;;;;;;4981361;28;19930;-82
2021/12/21 07:35:33;;;;;;;;;;;-2.80;99.90;;;;;;4980738;28;20015;-82
2021/12/21 07:38:00;;;;;;;;;;;-2.80;99.90;;;;;;4997559;28;20024;-82
2021/12/21 07:40:25;;;;;;;;;;;-2.80;99.90;;;;;;4997099;28;20381;-82
2021/12/21 07:42:51;;;;;;;;;;;-2.80;99.90;;;;;;5013662;28;19972;-82
2021/12/21 07:45:16;;;;;;;;;;;-2.80;99.90;;;;;;5013180;28;20362;-82
2021/12/21 07:47:42;;;;;;;;;;;-2.80;99.90;;;;;;4981065;28;20297;-82
2021/12/21 07:50:08;;;;;;;;;;;-2.90;99.90;;;;;;4997257;28;20354;-82
2021/12/21 07:52:36;;;;;;;;;;;-2.90;99.90;;;;;;4996700;28;19925;-82
2021/12/21 07:55:02;;;;;;;;;;;-2.90;99.90;;;;;;5012954;28;19925;-82
2021/12/21 07:57:28;;;;;;;;;;;-2.80;99.90;;;;;;4996367;28;20428;-82
2021/12/21 07:59:53;;;;;;;;;;;-2.80;99.90;;;;;;4980593;28;19930;-82
2021/12/21 08:02:19;;;;;;;;;;;-2.70;99.90;;;;;;4980493;28;19929;-83
2021/12/21 08:04:45;;;;;;;;;;;-2.70;99.90;;;;;;4996752;28;19932;-82
2021/12/21 08:07:15;;;;;;;;;;;-2.70;99.90;;;;;;4997043;28;19926;-82
2021/12/21 08:09:45;;;;;;;;;;;-2.70;99.90;;;;;;4996460;28;19926;-82
2021/12/21 08:12:14;;;;;;;;;;;-2.70;99.90;;;;;;4997435;28;19932;-82
2021/12/21 08:14:40;;;;;;;;;;;-2.70;99.90;;;;;;4996848;28;19976;-82
2021/12/21 08:17:06;;;;;;;;;;;-2.70;99.90;;;;;;4996678;28;19977;-82
2021/12/21 08:19:31;;;;;;;;;;;-2.70;99.90;;;;;;4979944;28;20003;-82
2021/12/21 08:21:57;;;;;;;;;;;-2.70;99.90;;;;;;4980329;28;19925;-82
2021/12/21 08:24:22;;;;;;;;;;;-2.70;99.90;;;;;;4979758;28;20385;-82
2021/12/21 08:26:48;;;;;;;;;;;-2.70;99.90;;;;;;4980359;28;19925;-82
2021/12/21 08:29:13;;;;;;;;;;;-2.60;99.90;;;;;;4996158;28;20432;-81
2021/12/21 08:31:39;;;;;;;;;;;-2.60;99.90;;;;;;4995878;28;19933;-82
2021/12/21 08:34:05;;;;;;;;;;;-2.60;99.90;;;;;;4996498;28;20382;-82
2021/12/21 08:36:31;;;;;;;;;;;-2.50;99.90;;;;;;4979622;28;19925;-82
2021/12/21 08:38:57;;;;;;;;;;;-2.50;99.90;;;;;;4996414;28;19925;-82
2021/12/21 08:41:23;;;;;;;;;;;-2.50;99.90;;;;;;5013167;28;19929;-83
2021/12/21 08:43:50;;;;;;;;;;;-2.50;99.90;;;;;;4980266;28;19930;-82
2021/12/21 08:46:15;;;;;;;;;;;-2.50;99.90;;;;;;4979938;28;20428;-81
2021/12/21 08:48:41;;;;;;;;;;;-2.50;99.90;;;;;;5012166;28;19968;-81
2021/12/21 08:51:06;;;;;;;;;;;-2.40;99.90;;;;;;4996181;28;19926;-82
2021/12/21 08:53:32;;;;;;;;;;;-2.40;99.90;;;;;;4979043;28;19930;-82
2021/12/21 08:55:58;;;;;;;;;;;-2.40;99.90;;;;;;4979512;28;19931;-81
2021/12/21 08:58:23;;;;;;;;;;;-2.40;99.90;;;;;;4979695;28;19925;-82
2021/12/21 09:00:50;;;;;;;;;;;-2.30;99.90;;;;;;4995850;28;20284;-82
2021/12/21 09:03:16;;;;;;;;;;;-2.30;99.90;;;;;;4979998;28;20274;-81
2021/12/21 09:05:42;;;;;;;;;;;-2.30;99.90;;;;;;4995566;28;19926;-82
2021/12/21 09:08:08;;;;;;;;;;;-2.20;99.90;;;;;;4979900;28;19932;-81
2021/12/21 09:10:34;;;;;;;;;;;-2.20;99.90;;;;;;4995239;28;20405;-82
2021/12/21 09:12:59;;;;;;;;;;;-2.20;99.90;;;;;;4995785;28;19925;-82
2021/12/21 09:15:25;;;;;;;;;;;-2.20;99.90;;;;;;4995897;28;19929;-82
2021/12/21 09:17:51;;;;;;;;;;;-2.20;99.90;;;;;;5015011;28;19985;-82
2021/12/21 09:20:17;;;;;;;;;;;-2.20;99.90;;;;;;5033103;28;19925;-81
2021/12/21 09:22:43;;;;;;;;;;;-2.10;99.90;;;;;;4999690;28;20338;-82
2021/12/21 09:25:09;;;;;;;;;;;-2.10;99.90;;;;;;4999871;28;19972;-81
2021/12/21 09:27:35;;;;;;;;;;;-2.10;99.90;;;;;;4999501;28;19948;-82
2021/12/21 09:30:00;;;;;;;;;;;-2.10;99.90;;;;;;5016389;28;19925;-82
2021/12/21 09:32:28;;;;;;;;;;;-2.00;99.90;;;;;;4999664;28;19925;-81
2021/12/21 09:34:54;;;;;;;;;;;-1.90;99.90;;;;;;4999297;28;19926;-81
2021/12/21 09:37:21;;;;;;;;;;;-1.90;99.90;;;;;;5016037;28;19925;-81
2021/12/21 09:39:47;;;;;;;;;;;-1.90;99.90;;;;;;5015526;28;19926;-81
2021/12/21 09:42:13;;;;;;;;;;;-1.80;99.90;;;;;;4999664;28;19926;-81
2021/12/21 09:44:58;;;;;;;;;;;-1.80;99.90;;;;;;4999359;28;19929;-88
2021/12/21 09:47:26;;;;;;;;;;;-1.70;99.90;;;;;;5000716;28;19971;-86
2021/12/21 09:49:52;;;;;;;;;;;-1.60;99.90;;;;;;4999394;28;19929;-85
2021/12/21 09:52:21;;;;;;;;;;;-1.60;99.90;;;;;;4999426;28;20389;-83
2021/12/21 09:54:46;;;;;;;;;;;-1.60;99.90;;;;;;4998422;28;19975;-83
2021/12/21 09:57:16;;;;;;;;;;;-1.50;99.90;;;;;;4983207;28;19925;-83
2021/12/21 09:59:44;;;;;;;;;;;-1.40;99.90;;;;;;4999406;28;19925;-83
2021/12/21 10:02:09;;;;;;;;;;;-1.30;99.90;;;;;;4982790;28;20362;-83
2021/12/21 10:04:51;;;;;;;;;;;-1.20;99.90;;;;;;4998593;28;19926;-84
2021/12/21 10:07:18;;;;;;;;;;;-1.20;99.90;;;;;;4982944;28;20318;-83
2021/12/21 10:09:45;;;;;;;;;;;-1.20;99.90;;;;;;4982737;28;20016;-83
2021/12/21 10:12:28;;;;;;;;;;;-1.10;99.90;;;;;;4999515;28;19932;-83
2021/12/21 10:15:08;;;;;;;;;;;-1.00;99.90;;;;;;4982372;28;19926;-84
2021/12/21 10:17:35;;;;;;;;;;;-1.00;99.90;;;;;;4982959;28;20317;-83
2021/12/21 10:20:01;;;;;;;;;;;-0.90;99.90;;;;;;4982748;28;19933;-83
2021/12/21 10:22:27;;;;;;;;;;;-0.90;99.90;;;;;;4982820;28;20331;-83
2021/12/21 10:24:53;;;;;;;;;;;-0.80;99.90;;;;;;4981962;28;19926;-83
2021/12/21 10:27:19;;;;;;;;;;;-0.80;99.90;;;;;;4998588;28;20328;-83
2021/12/21 10:29:49;;;;;;;;;;;-0.60;99.90;;;;;;4998450;28;20020;-84
2021/12/21 10:32:20;;;;;;;;;;;-0.70;99.90;;;;;;5015142;28;19947;-83
2021/12/21 10:34:53;;;;;;;;;;;-0.60;99.90;;;;;;5014668;28;19932;-83
2021/12/21 10:37:19;;;;;;;;;;;-0.60;99.90;;;;;;4998660;28;19929;-83
2021/12/21 10:39:52;;;;;;;;;;;-0.50;99.90;;;;;;4981960;28;19980;-83
2021/12/21 10:42:20;;;;;;;;;;;-0.50;99.90;;;;;;4983359;28;20278;-83
2021/12/21 10:44:54;;;;;;;;;;;-0.50;99.90;;;;;;4981544;28;19926;-83
2021/12/21 10:47:19;;;;;;;;;;;-0.50;99.90;;;;;;4998463;28;19929;-84
2021/12/21 10:49:53;;;;;;;;;;;-0.30;99.90;;;;;;4981872;28;19933;-84
2021/12/21 10:52:22;;;;;;;;;;;-0.20;99.90;;;;;;4982789;28;19991;-84
2021/12/21 10:54:48;;;;;;;;;;;-0.20;99.90;;;;;;4981356;28;19929;-84
2021/12/21 10:57:31;;;;;;;;;;;-0.10;99.90;;;;;;4982083;28;20281;-83
2021/12/21 10:59:57;;;;;;;;;;;0.00;99.90;;;;;;4982466;28;19925;-83
2021/12/21 11:02:27;;;;;;;;;;;0.00;99.90;;;;;;4981888;28;19925;-83
2021/12/21 11:04:55;;;;;;;;;;;0.10;99.90;;;;;;4981965;28;19925;-83
2021/12/21 11:07:34;;;;;;;;;;;0.20;99.90;;;;;;4981926;28;20278;-83
2021/12/21 11:10:01;;;;;;;;;;;0.20;99.90;;;;;;4982823;28;20378;-83
2021/12/21 11:12:30;;;;;;;;;;;0.40;99.90;;;;;;4998063;28;20001;-83
2021/12/21 11:14:57;;;;;;;;;;;0.40;99.90;;;;;;4981157;28;19984;-83
2021/12/21 11:17:23;;;;;;;;;;;0.40;99.90;;;;;;4982041;28;19989;-83
2021/12/21 11:19:52;;;;;;;;;;;0.40;99.90;;;;;;4981202;28;20392;-83
2021/12/21 11:22:18;;;;;;;;;;;0.50;99.90;;;;;;4981497;28;19936;-83
2021/12/21 11:24:44;;;;;;;;;;;0.60;99.90;;;;;;4997875;28;20341;-83
2021/12/21 11:27:10;;;;;;;;;;;0.70;99.90;;;;;;5013610;28;19933;-83
2021/12/21 11:29:35;;;;;;;;;;;0.70;99.90;;;;;;4997443;28;19933;-83
2021/12/21 11:32:01;;;;;;;;;;;0.80;99.90;;;;;;5013432;28;20016;-83
2021/12/21 11:34:31;;;;;;;;;;;0.80;99.90;;;;;;4997629;28;20282;-83
2021/12/21 11:39:42;;;;;;;;;;;0.90;99.90;;;;;;5015917;28;19969;-83
2021/12/21 11:42:09;;;;;;;;;;;1.00;99.90;;;;;;4980863;28;19979;-83
2021/12/21 11:44:47;;;;;;;;;;;1.00;99.90;;;;;;4997216;28;19931;-83
2021/12/21 11:47:15;;;;;;;;;;;1.10;99.90;;;;;;4980756;28;20417;-83
2021/12/21 11:49:44;;;;;;;;;;;1.10;99.90;;;;;;4982680;28;19926;-84
2021/12/21 11:52:12;;;;;;;;;;;1.20;99.90;;;;;;4996783;28;20326;-83
2021/12/21 11:54:46;;;;;;;;;;;1.20;99.90;;;;;;4997009;28;19925;-84
2021/12/21 11:57:12;;;;;;;;;;;1.20;99.90;;;;;;5029235;28;19925;-84
2021/12/21 11:59:37;;;;;;;;;;;1.30;99.90;;;;;;4997064;28;20444;-84
2021/12/21 12:02:04;;;;;;;;;;;1.30;99.90;;;;;;4980110;28;20064;-83
2021/12/21 12:04:30;;;;;;;;;;;1.30;99.90;;;;;;5013422;28;19980;-84
2021/12/21 12:06:57;;;;;;;;;;;1.40;99.90;;;;;;4996568;28;20354;-84
2021/12/21 12:09:32;;;;;;;;;;;1.40;99.90;;;;;;4997100;28;19980;-84
2021/12/21 12:12:05;;;;;;;;;;;1.40;99.90;;;;;;4980367;28;19926;-84
2021/12/21 12:14:30;;;;;;;;;;;1.40;99.90;;;;;;4980060;28;20020;-84
2021/12/21 12:16:57;;;;;;;;;;;1.50;99.90;;;;;;4995959;28;20012;-84
2021/12/21 12:19:43;;;;;;;;;;;1.40;99.90;;;;;;4980544;28;19988;-83
2021/12/21 12:22:18;;;;;;;;;;;1.50;99.90;;;;;;5028993;28;20340;-89
2021/12/21 12:24:54;;;;;;;;;;;1.50;99.90;;;;;;4980195;28;20266;-82
2021/12/21 12:27:23;;;;;;;;;;;1.50;99.90;;;;;;4981321;28;19929;-83
2021/12/21 12:29:52;;;;;;;;;;;1.50;99.90;;;;;;4980238;28;19936;-83
2021/12/21 12:32:30;;;;;;;;;;;1.50;99.90;;;;;;4996192;28;20336;-83
2021/12/21 12:35:06;;;;;;;;;;;1.50;99.90;;;;;;5028604;28;20373;-83
2021/12/21 12:37:31;;;;;;;;;;;1.60;99.90;;;;;;4996597;28;20251;-83
2021/12/21 12:40:04;;;;;;;;;;;1.60;99.90;;;;;;4979901;28;19926;-83
2021/12/21 12:42:32;;;;;;;;;;;1.60;99.90;;;;;;4996487;28;19933;-83
2021/12/21 12:45:02;;;;;;;;;;;1.70;99.90;;;;;;5028794;28;19926;-84
2021/12/21 12:47:28;;;;;;;;;;;1.70;99.90;;;;;;4980250;28;20382;-83
2021/12/21 12:49:54;;;;;;;;;;;1.70;99.90;;;;;;5012413;28;20028;-84
2021/12/21 12:52:30;;;;;;;;;;;1.80;99.90;;;;;;4996683;28;19936;-84
2021/12/21 12:55:02;;;;;;;;;;;1.70;99.90;;;;;;4996244;28;19925;-84
2021/12/21 12:57:41;;;;;;;;;;;1.70;99.90;;;;;;4996191;28;20571;-85
2021/12/21 13:00:11;;;;;;;;;;;1.70;99.90;;;;;;4980849;28;19951;-85
2021/12/21 13:02:37;;;;;;;;;;;1.80;99.90;;;;;;4980354;28;20350;-85
2021/12/21 13:05:06;;;;;;;;;;;1.70;99.90;;;;;;4979561;28;19925;-84
2021/12/21 13:07:32;;;;;;;;;;;1.80;99.90;;;;;;4980043;28;19925;-84
2021/12/21 13:10:05;;;;;;;;;;;1.80;99.90;;;;;;4996049;28;19936;-84
2021/12/21 13:12:31;;;;;;;;;;;1.80;99.90;;;;;;4996067;28;19925;-84
2021/12/21 13:14:56;;;;;;;;;;;1.90;99.90;;;;;;4979732;28;19925;-84
2021/12/21 13:17:22;;;;;;;;;;;1.90;99.90;;;;;;5011358;28;19929;-84
2021/12/21 13:19:50;;;;;;;;;;;1.90;99.90;;;;;;4995927;28;20434;-84
2021/12/21 13:22:20;;;;;;;;;;;1.90;99.90;;;;;;4979557;28;19952;-84
2021/12/21 13:24:48;;;;;;;;;;;1.80;99.90;;;;;;4995988;28;19925;-84
2021/12/21 13:27:14;;;;;;;;;;;1.90;99.90;;;;;;4995628;28;19932;-84
2021/12/21 13:29:39;;;;;;;;;;;1.90;99.90;;;;;;4979307;28;20377;-84
2021/12/21 13:32:08;;;;;;;;;;;1.90;99.90;;;;;;4995006;28;19925;-84
2021/12/21 13:34:33;;;;;;;;;;;1.90;99.90;;;;;;4996215;28;19961;-85
2021/12/21 13:37:00;;;;;;;;;;;1.90;99.90;;;;;;4979351;28;19980;-84
2021/12/21 13:39:30;;;;;;;;;;;1.80;99.90;;;;;;4978665;28;19972;-84
2021/12/21 13:41:56;;;;;;;;;;;1.80;99.90;;;;;;5028579;28;19979;-84
2021/12/21 13:44:22;;;;;;;;;;;1.70;99.90;;;;;;4995251;28;19936;-84
2021/12/21 13:46:48;;;;;;;;;;;1.80;99.90;;;;;;4995573;28;19929;-84
2021/12/21 13:49:13;;;;;;;;;;;1.80;99.90;;;;;;4978907;28;19925;-82
2021/12/21 13:51:46;;;;;;;;;;;1.70;99.90;;;;;;4995317;28;20012;-82
2021/12/21 13:54:12;;;;;;;;;;;1.70;99.90;;;;;;4994860;28;20250;-83
2021/12/21 13:56:38;;;;;;;;;;;1.70;99.90;;;;;;4995279;28;19934;-82
2021/12/21 13:59:03;;;;;;;;;;;1.70;99.90;;;;;;4995621;28;19932;-83
2021/12/21 14:01:30;;;;;;;;;;;1.60;99.90;;;;;;4978914;28;20385;-83
2021/12/21 14:04:03;;;;;;;;;;;1.60;99.90;;;;;;4982109;28;20023;-83
2021/12/21 14:06:31;;;;;;;;;;;1.60;99.90;;;;;;4982840;28;20277;-82
2021/12/21 14:08:58;;;;;;;;;;;1.50;99.90;;;;;;4983282;28;19926;-83
2021/12/21 14:11:25;;;;;;;;;;;1.50;99.90;;;;;;4998588;28;19933;-83
2021/12/21 14:13:53;;;;;;;;;;;1.50;99.90;;;;;;4982927;28;19926;-83
2021/12/21 14:16:19;;;;;;;;;;;1.40;99.90;;;;;;4998423;28;20333;-82
2021/12/21 14:18:48;;;;;;;;;;;1.40;99.90;;;;;;4999032;28;20012;-83
2021/12/21 14:21:20;;;;;;;;;;;1.40;99.90;;;;;;4982298;28;19984;-83
2021/12/21 14:23:52;;;;;;;;;;;1.40;99.90;;;;;;4982679;28;19932;-82
2021/12/21 14:26:22;;;;;;;;;;;1.30;99.90;;;;;;4998668;28;20016;-82
2021/12/21 14:28:51;;;;;;;;;;;1.30;99.90;;;;;;4999021;28;20016;-82
2021/12/21 14:31:22;;;;;;;;;;;1.30;99.90;;;;;;4998149;28;19965;-82
2021/12/21 14:33:49;;;;;;;;;;;1.20;99.90;;;;;;4982793;28;20064;-83
2021/12/21 14:36:18;;;;;;;;;;;1.20;99.90;;;;;;4998133;28;19933;-83
2021/12/21 14:38:50;;;;;;;;;;;1.20;99.90;;;;;;4998705;28;20322;-82
2021/12/21 14:41:23;;;;;;;;;;;1.10;99.90;;;;;;4997972;28;20428;-85
2021/12/21 14:43:59;;;;;;;;;;;1.00;99.90;;;;;;4998322;28;19929;-82
2021/12/21 14:46:27;;;;;;;;;;;1.00;99.90;;;;;;4982076;28;20381;-82
2021/12/21 14:48:56;;;;;;;;;;;1.00;99.90;;;;;;4998938;28;20337;-82
2021/12/21 14:51:22;;;;;;;;;;;0.90;99.90;;;;;;5014378;28;19929;-82
2021/12/21 14:53:58;;;;;;;;;;;0.80;99.90;;;;;;4998021;28;19937;-82
2021/12/21 14:56:27;;;;;;;;;;;0.80;99.90;;;;;;4997836;28;19949;-82
2021/12/21 14:58:59;;;;;;;;;;;0.70;99.90;;;;;;4998475;28;19925;-82
2021/12/21 15:01:35;;;;;;;;;;;0.70;99.90;;;;;;4997887;28;19932;-83
2021/12/21 15:04:10;;;;;;;;;;;0.70;99.90;;;;;;5014796;28;19926;-82
2021/12/21 15:06:38;;;;;;;;;;;0.60;99.90;;;;;;4981658;28;19926;-82
2021/12/21 15:09:04;;;;;;;;;;;0.50;99.90;;;;;;5014134;28;19926;-82
2021/12/21 15:11:30;;;;;;;;;;;0.50;99.90;;;;;;4997830;28;19932;-82
2021/12/21 15:13:56;;;;;;;;;;;0.50;99.90;;;;;;4980759;28;19925;-82
2021/12/21 15:16:24;;;;;;;;;;;0.40;99.90;;;;;;5013403;28;19929;-82
2021/12/21 15:18:49;;;;;;;;;;;0.30;99.90;;;;;;4981941;28;19929;-82
2021/12/21 15:21:15;;;;;;;;;;;0.40;99.90;;;;;;5030764;28;20326;-82
2021/12/21 15:23:41;;;;;;;;;;;0.30;99.90;;;;;;4981181;28;19925;-82
2021/12/21 15:26:06;;;;;;;;;;;0.30;99.90;;;;;;4997744;28;19965;-82